sensor_id;sensor_type;location;lat;lon;timestamp;P1;durP1;ratioP1;P2;durP2;ratioP2
79052;SDS011;68451;49.510;6.026;2023-08-24T00:01:30;5.18;;;4.55;;
79052;SDS011;68451;49.510;6.026;2023-08-24T00:03:55;5.82;;;4.07;;
79052;SDS011;68451;49.510;6.026;2023-08-24T00:06:21;7.85;;;4.88;;
79052;SDS011;68451;49.510;6.026;2023-08-24T00:08:46;13.25;;;4.88;;
79052;SDS011;68451;49.510;6.026;2023-08-24T00:11:12;7.97;;;5.13;;
79052;SDS011;68451;49.510;6.026;2023-08-24T00:13:42;6.25;;;4.80;;
79052;SDS011;68451;49.510;6.026;2023-08-24T00:16:20;5.45;;;4.82;;
79052;SDS011;68451;49.510;6.026;2023-08-24T00:18:46;5.97;;;4.55;;
79052;SDS011;68451;49.510;6.026;2023-08-24T00:21:15;5.15;;;4.55;;
79052;SDS011;68451;49.510;6.026;2023-08-24T00:23:47;6.50;;;4.25;;
79052;SDS011;68451;49.510;6.026;2023-08-24T00:26:13;7.13;;;4.82;;
79052;SDS011;68451;49.510;6.026;2023-08-24T00:28:41;7.65;;;4.63;;
79052;SDS011;68451;49.510;6.026;2023-08-24T00:31:07;8.10;;;5.45;;
79052;SDS011;68451;49.510;6.026;2023-08-24T00:33:33;6.22;;;3.92;;
79052;SDS011;68451;49.510;6.026;2023-08-24T00:35:59;7.07;;;4.03;;
79052;SDS011;68451;49.510;6.026;2023-08-24T00:38:27;6.68;;;5.10;;
79052;SDS011;68451;49.510;6.026;2023-08-24T00:40:53;7.03;;;4.50;;
79052;SDS011;68451;49.510;6.026;2023-08-24T00:43:20;6.93;;;4.50;;
79052;SDS011;68451;49.510;6.026;2023-08-24T00:45:52;6.25;;;4.97;;
79052;SDS011;68451;49.510;6.026;2023-08-24T00:48:20;7.27;;;5.27;;
79052;SDS011;68451;49.510;6.026;2023-08-24T00:50:50;13.60;;;4.60;;
79052;SDS011;68451;49.510;6.026;2023-08-24T00:53:20;6.50;;;4.22;;
79052;SDS011;68451;49.510;6.026;2023-08-24T00:55:46;6.20;;;4.25;;
79052;SDS011;68451;49.510;6.026;2023-08-24T00:58:13;7.05;;;4.65;;
79052;SDS011;68451;49.510;6.026;2023-08-24T01:00:39;5.53;;;4.00;;
79052;SDS011;68451;49.510;6.026;2023-08-24T01:03:04;8.32;;;5.05;;
79052;SDS011;68451;49.510;6.026;2023-08-24T01:05:30;5.95;;;4.60;;
79052;SDS011;68451;49.510;6.026;2023-08-24T01:07:55;11.27;;;4.95;;
79052;SDS011;68451;49.510;6.026;2023-08-24T01:10:21;9.98;;;5.90;;
79052;SDS011;68451;49.510;6.026;2023-08-24T01:13:30;7.85;;;5.07;;
79052;SDS011;68451;49.510;6.026;2023-08-24T01:15:56;5.70;;;5.13;;
79052;SDS011;68451;49.510;6.026;2023-08-24T01:18:33;9.57;;;5.43;;
79052;SDS011;68451;49.510;6.026;2023-08-24T01:21:01;9.10;;;5.45;;
79052;SDS011;68451;49.510;6.026;2023-08-24T01:26:00;8.82;;;5.63;;
79052;SDS011;68451;49.510;6.026;2023-08-24T01:28:29;9.30;;;6.43;;
79052;SDS011;68451;49.510;6.026;2023-08-24T01:30:55;7.38;;;6.13;;
79052;SDS011;68451;49.510;6.026;2023-08-24T01:33:21;8.05;;;6.65;;
79052;SDS011;68451;49.510;6.026;2023-08-24T01:35:46;7.55;;;5.53;;
79052;SDS011;68451;49.510;6.026;2023-08-24T01:38:12;7.45;;;5.63;;
79052;SDS011;68451;49.510;6.026;2023-08-24T01:43:24;7.45;;;5.20;;
79052;SDS011;68451;49.510;6.026;2023-08-24T01:45:54;5.93;;;5.32;;
79052;SDS011;68451;49.510;6.026;2023-08-24T01:48:21;6.55;;;4.25;;
79052;SDS011;68451;49.510;6.026;2023-08-24T01:50:47;5.22;;;4.70;;
79052;SDS011;68451;49.510;6.026;2023-08-24T01:53:14;6.25;;;4.13;;
79052;SDS011;68451;49.510;6.026;2023-08-24T01:55:40;7.45;;;5.15;;
79052;SDS011;68451;49.510;6.026;2023-08-24T01:58:06;6.13;;;5.05;;
79052;SDS011;68451;49.510;6.026;2023-08-24T02:00:31;5.25;;;4.45;;
79052;SDS011;68451;49.510;6.026;2023-08-24T02:02:57;7.90;;;4.53;;
79052;SDS011;68451;49.510;6.026;2023-08-24T02:05:23;7.22;;;4.80;;
79052;SDS011;68451;49.510;6.026;2023-08-24T02:07:52;6.93;;;4.97;;
79052;SDS011;68451;49.510;6.026;2023-08-24T02:10:18;6.70;;;4.40;;
79052;SDS011;68451;49.510;6.026;2023-08-24T02:12:43;7.05;;;4.53;;
79052;SDS011;68451;49.510;6.026;2023-08-24T02:15:09;6.65;;;5.43;;
79052;SDS011;68451;49.510;6.026;2023-08-24T02:17:34;7.40;;;5.35;;
79052;SDS011;68451;49.510;6.026;2023-08-24T02:20:00;4.97;;;4.55;;
79052;SDS011;68451;49.510;6.026;2023-08-24T02:22:25;7.18;;;5.05;;
79052;SDS011;68451;49.510;6.026;2023-08-24T02:24:52;7.63;;;5.03;;
79052;SDS011;68451;49.510;6.026;2023-08-24T02:27:18;9.02;;;5.22;;
79052;SDS011;68451;49.510;6.026;2023-08-24T02:29:43;9.90;;;5.78;;
79052;SDS011;68451;49.510;6.026;2023-08-24T02:32:09;6.18;;;5.00;;
79052;SDS011;68451;49.510;6.026;2023-08-24T02:34:35;5.53;;;4.88;;
79052;SDS011;68451;49.510;6.026;2023-08-24T02:37:01;6.40;;;5.00;;
79052;SDS011;68451;49.510;6.026;2023-08-24T02:39:26;6.22;;;4.65;;
79052;SDS011;68451;49.510;6.026;2023-08-24T02:41:52;10.52;;;4.85;;
79052;SDS011;68451;49.510;6.026;2023-08-24T02:44:18;8.27;;;5.15;;
79052;SDS011;68451;49.510;6.026;2023-08-24T02:46:47;7.60;;;5.50;;
79052;SDS011;68451;49.510;6.026;2023-08-24T02:49:13;7.63;;;5.53;;
79052;SDS011;68451;49.510;6.026;2023-08-24T02:51:39;8.77;;;5.25;;
79052;SDS011;68451;49.510;6.026;2023-08-24T02:54:05;7.82;;;5.10;;
79052;SDS011;68451;49.510;6.026;2023-08-24T02:56:31;5.93;;;4.80;;
79052;SDS011;68451;49.510;6.026;2023-08-24T02:58:56;7.53;;;5.15;;
79052;SDS011;68451;49.510;6.026;2023-08-24T03:01:22;5.82;;;4.97;;
79052;SDS011;68451;49.510;6.026;2023-08-24T03:03:47;6.57;;;5.18;;
79052;SDS011;68451;49.510;6.026;2023-08-24T03:06:13;8.57;;;5.22;;
79052;SDS011;68451;49.510;6.026;2023-08-24T03:08:38;6.60;;;5.85;;
79052;SDS011;68451;49.510;6.026;2023-08-24T03:11:04;9.88;;;5.78;;
79052;SDS011;68451;49.510;6.026;2023-08-24T03:13:30;8.35;;;6.57;;
79052;SDS011;68451;49.510;6.026;2023-08-24T03:15:56;9.90;;;6.65;;
79052;SDS011;68451;49.510;6.026;2023-08-24T03:18:22;7.20;;;6.50;;
79052;SDS011;68451;49.510;6.026;2023-08-24T03:20:48;7.82;;;6.70;;
79052;SDS011;68451;49.510;6.026;2023-08-24T03:23:14;10.93;;;6.90;;
79052;SDS011;68451;49.510;6.026;2023-08-24T03:25:41;8.70;;;6.43;;
79052;SDS011;68451;49.510;6.026;2023-08-24T03:28:07;8.45;;;6.18;;
79052;SDS011;68451;49.510;6.026;2023-08-24T03:30:37;11.35;;;5.53;;
79052;SDS011;68451;49.510;6.026;2023-08-24T03:33:04;8.75;;;6.15;;
79052;SDS011;68451;49.510;6.026;2023-08-24T03:35:30;8.35;;;5.50;;
79052;SDS011;68451;49.510;6.026;2023-08-24T03:37:56;6.85;;;5.85;;
79052;SDS011;68451;49.510;6.026;2023-08-24T03:40:22;8.80;;;6.03;;
79052;SDS011;68451;49.510;6.026;2023-08-24T03:42:47;7.15;;;6.50;;
79052;SDS011;68451;49.510;6.026;2023-08-24T03:45:13;6.45;;;5.22;;
79052;SDS011;68451;49.510;6.026;2023-08-24T03:47:38;7.50;;;5.95;;
79052;SDS011;68451;49.510;6.026;2023-08-24T03:50:04;9.55;;;5.43;;
79052;SDS011;68451;49.510;6.026;2023-08-24T03:52:30;11.00;;;7.13;;
79052;SDS011;68451;49.510;6.026;2023-08-24T03:54:56;7.82;;;5.78;;
79052;SDS011;68451;49.510;6.026;2023-08-24T03:57:22;8.07;;;5.57;;
79052;SDS011;68451;49.510;6.026;2023-08-24T03:59:47;7.55;;;5.25;;
79052;SDS011;68451;49.510;6.026;2023-08-24T04:02:13;7.38;;;5.55;;
79052;SDS011;68451;49.510;6.026;2023-08-24T04:04:38;7.55;;;5.72;;
79052;SDS011;68451;49.510;6.026;2023-08-24T04:07:04;8.38;;;5.50;;
79052;SDS011;68451;49.510;6.026;2023-08-24T04:09:30;5.28;;;4.78;;
79052;SDS011;68451;49.510;6.026;2023-08-24T04:11:55;5.88;;;5.18;;
79052;SDS011;68451;49.510;6.026;2023-08-24T04:14:21;7.25;;;6.50;;
79052;SDS011;68451;49.510;6.026;2023-08-24T04:16:46;8.13;;;5.82;;
79052;SDS011;68451;49.510;6.026;2023-08-24T04:19:12;7.75;;;5.72;;
79052;SDS011;68451;49.510;6.026;2023-08-24T04:21:38;6.97;;;5.35;;
79052;SDS011;68451;49.510;6.026;2023-08-24T04:24:04;7.25;;;5.95;;
79052;SDS011;68451;49.510;6.026;2023-08-24T04:26:29;11.60;;;6.53;;
79052;SDS011;68451;49.510;6.026;2023-08-24T04:28:55;7.40;;;5.75;;
79052;SDS011;68451;49.510;6.026;2023-08-24T04:31:21;7.47;;;6.60;;
79052;SDS011;68451;49.510;6.026;2023-08-24T04:33:47;8.73;;;5.78;;
79052;SDS011;68451;49.510;6.026;2023-08-24T04:36:12;8.93;;;5.90;;
79052;SDS011;68451;49.510;6.026;2023-08-24T04:38:38;8.70;;;5.63;;
79052;SDS011;68451;49.510;6.026;2023-08-24T04:41:03;9.38;;;5.70;;
79052;SDS011;68451;49.510;6.026;2023-08-24T04:43:32;9.15;;;6.60;;
79052;SDS011;68451;49.510;6.026;2023-08-24T04:45:58;10.35;;;6.22;;
79052;SDS011;68451;49.510;6.026;2023-08-24T04:48:24;11.75;;;7.10;;
79052;SDS011;68451;49.510;6.026;2023-08-24T04:50:58;9.05;;;5.82;;
79052;SDS011;68451;49.510;6.026;2023-08-24T04:53:24;8.95;;;6.43;;
79052;SDS011;68451;49.510;6.026;2023-08-24T04:55:51;9.75;;;5.53;;
79052;SDS011;68451;49.510;6.026;2023-08-24T04:58:17;8.52;;;6.57;;
79052;SDS011;68451;49.510;6.026;2023-08-24T05:00:42;10.20;;;5.63;;
79052;SDS011;68451;49.510;6.026;2023-08-24T05:03:08;6.15;;;5.00;;
79052;SDS011;68451;49.510;6.026;2023-08-24T05:05:34;8.90;;;6.32;;
79052;SDS011;68451;49.510;6.026;2023-08-24T05:08:00;6.32;;;5.63;;
79052;SDS011;68451;49.510;6.026;2023-08-24T05:10:30;5.53;;;4.95;;
79052;SDS011;68451;49.510;6.026;2023-08-24T05:12:57;6.30;;;5.50;;
79052;SDS011;68451;49.510;6.026;2023-08-24T05:15:22;8.50;;;6.07;;
79052;SDS011;68451;49.510;6.026;2023-08-24T05:17:48;7.50;;;5.35;;
79052;SDS011;68451;49.510;6.026;2023-08-24T05:20:14;9.82;;;5.75;;
79052;SDS011;68451;49.510;6.026;2023-08-24T05:22:39;7.07;;;5.53;;
79052;SDS011;68451;49.510;6.026;2023-08-24T05:25:05;8.90;;;5.95;;
79052;SDS011;68451;49.510;6.026;2023-08-24T05:27:31;6.45;;;5.03;;
79052;SDS011;68451;49.510;6.026;2023-08-24T05:29:56;6.20;;;5.20;;
79052;SDS011;68451;49.510;6.026;2023-08-24T05:32:22;8.63;;;5.45;;
79052;SDS011;68451;49.510;6.026;2023-08-24T05:34:48;8.13;;;6.00;;
79052;SDS011;68451;49.510;6.026;2023-08-24T05:37:13;8.45;;;6.30;;
79052;SDS011;68451;49.510;6.026;2023-08-24T05:39:39;7.78;;;5.80;;
79052;SDS011;68451;49.510;6.026;2023-08-24T05:42:05;6.57;;;5.45;;
79052;SDS011;68451;49.510;6.026;2023-08-24T05:44:31;6.38;;;5.68;;
79052;SDS011;68451;49.510;6.026;2023-08-24T05:46:56;8.52;;;5.32;;
79052;SDS011;68451;49.510;6.026;2023-08-24T05:49:22;6.03;;;4.95;;
79052;SDS011;68451;49.510;6.026;2023-08-24T05:51:51;7.82;;;5.63;;
79052;SDS011;68451;49.510;6.026;2023-08-24T05:54:17;8.20;;;5.57;;
79052;SDS011;68451;49.510;6.026;2023-08-24T05:56:45;8.07;;;4.72;;
79052;SDS011;68451;49.510;6.026;2023-08-24T05:59:11;8.52;;;4.82;;
79052;SDS011;68451;49.510;6.026;2023-08-24T06:01:37;7.25;;;5.10;;
79052;SDS011;68451;49.510;6.026;2023-08-24T06:04:04;6.30;;;5.22;;
79052;SDS011;68451;49.510;6.026;2023-08-24T06:06:30;8.20;;;5.40;;
79052;SDS011;68451;49.510;6.026;2023-08-24T06:08:56;8.30;;;5.30;;
79052;SDS011;68451;49.510;6.026;2023-08-24T06:11:21;4.82;;;4.40;;
79052;SDS011;68451;49.510;6.026;2023-08-24T06:13:48;9.68;;;5.15;;
79052;SDS011;68451;49.510;6.026;2023-08-24T06:16:13;7.93;;;4.97;;
79052;SDS011;68451;49.510;6.026;2023-08-24T06:18:39;8.50;;;5.70;;
79052;SDS011;68451;49.510;6.026;2023-08-24T06:21:04;8.68;;;5.60;;
79052;SDS011;68451;49.510;6.026;2023-08-24T06:23:30;6.10;;;4.95;;
79052;SDS011;68451;49.510;6.026;2023-08-24T06:25:55;7.18;;;5.35;;
79052;SDS011;68451;49.510;6.026;2023-08-24T06:28:21;10.10;;;5.75;;
79052;SDS011;68451;49.510;6.026;2023-08-24T06:30:46;5.97;;;5.30;;
79052;SDS011;68451;49.510;6.026;2023-08-24T06:33:12;9.55;;;5.85;;
79052;SDS011;68451;49.510;6.026;2023-08-24T06:35:38;8.50;;;5.38;;
79052;SDS011;68451;49.510;6.026;2023-08-24T06:38:04;9.50;;;5.10;;
79052;SDS011;68451;49.510;6.026;2023-08-24T06:40:30;9.27;;;5.28;;
79052;SDS011;68451;49.510;6.026;2023-08-24T06:42:56;8.88;;;4.80;;
79052;SDS011;68451;49.510;6.026;2023-08-24T06:45:22;5.35;;;4.72;;
79052;SDS011;68451;49.510;6.026;2023-08-24T06:47:47;5.80;;;5.13;;
79052;SDS011;68451;49.510;6.026;2023-08-24T06:50:13;9.45;;;4.90;;
79052;SDS011;68451;49.510;6.026;2023-08-24T06:52:40;6.72;;;5.03;;
79052;SDS011;68451;49.510;6.026;2023-08-24T06:55:07;5.75;;;5.07;;
79052;SDS011;68451;49.510;6.026;2023-08-24T06:57:33;11.07;;;5.03;;
79052;SDS011;68451;49.510;6.026;2023-08-24T06:59:59;6.13;;;4.40;;
79052;SDS011;68451;49.510;6.026;2023-08-24T07:02:25;4.55;;;3.85;;
79052;SDS011;68451;49.510;6.026;2023-08-24T07:04:51;8.68;;;5.47;;
79052;SDS011;68451;49.510;6.026;2023-08-24T07:07:16;8.30;;;5.15;;
79052;SDS011;68451;49.510;6.026;2023-08-24T07:09:42;8.05;;;5.18;;
79052;SDS011;68451;49.510;6.026;2023-08-24T07:12:08;6.43;;;4.78;;
79052;SDS011;68451;49.510;6.026;2023-08-24T07:14:36;6.53;;;4.38;;
79052;SDS011;68451;49.510;6.026;2023-08-24T07:17:01;9.15;;;5.40;;
79052;SDS011;68451;49.510;6.026;2023-08-24T07:19:27;7.40;;;5.32;;
79052;SDS011;68451;49.510;6.026;2023-08-24T07:21:53;9.88;;;5.30;;
79052;SDS011;68451;49.510;6.026;2023-08-24T07:24:19;6.88;;;5.10;;
79052;SDS011;68451;49.510;6.026;2023-08-24T07:26:45;6.57;;;5.15;;
79052;SDS011;68451;49.510;6.026;2023-08-24T07:29:11;6.88;;;5.18;;
79052;SDS011;68451;49.510;6.026;2023-08-24T07:31:37;8.10;;;5.30;;
79052;SDS011;68451;49.510;6.026;2023-08-24T07:34:03;7.55;;;5.28;;
79052;SDS011;68451;49.510;6.026;2023-08-24T07:36:32;6.35;;;4.45;;
79052;SDS011;68451;49.510;6.026;2023-08-24T07:38:57;5.57;;;4.90;;
79052;SDS011;68451;49.510;6.026;2023-08-24T07:41:23;7.60;;;5.28;;
79052;SDS011;68451;49.510;6.026;2023-08-24T07:43:49;6.70;;;5.03;;
79052;SDS011;68451;49.510;6.026;2023-08-24T07:46:14;7.75;;;5.43;;
79052;SDS011;68451;49.510;6.026;2023-08-24T07:48:40;7.38;;;4.88;;
79052;SDS011;68451;49.510;6.026;2023-08-24T07:51:05;5.70;;;4.05;;
79052;SDS011;68451;49.510;6.026;2023-08-24T07:53:32;7.50;;;4.78;;
79052;SDS011;68451;49.510;6.026;2023-08-24T07:55:58;6.57;;;4.43;;
79052;SDS011;68451;49.510;6.026;2023-08-24T07:58:24;4.43;;;3.45;;
79052;SDS011;68451;49.510;6.026;2023-08-24T08:00:50;6.53;;;4.20;;
79052;SDS011;68451;49.510;6.026;2023-08-24T08:03:17;5.07;;;3.97;;
79052;SDS011;68451;49.510;6.026;2023-08-24T08:05:43;5.82;;;4.00;;
79052;SDS011;68451;49.510;6.026;2023-08-24T08:08:10;7.22;;;4.18;;
79052;SDS011;68451;49.510;6.026;2023-08-24T08:10:35;4.20;;;3.88;;
79052;SDS011;68451;49.510;6.026;2023-08-24T08:13:00;4.25;;;3.85;;
79052;SDS011;68451;49.510;6.026;2023-08-24T08:15:26;5.18;;;3.72;;
79052;SDS011;68451;49.510;6.026;2023-08-24T08:17:51;5.32;;;3.85;;
79052;SDS011;68451;49.510;6.026;2023-08-24T08:20:17;5.00;;;3.50;;
79052;SDS011;68451;49.510;6.026;2023-08-24T08:22:43;4.63;;;3.40;;
79052;SDS011;68451;49.510;6.026;2023-08-24T08:25:08;4.03;;;3.33;;
79052;SDS011;68451;49.510;6.026;2023-08-24T08:27:36;4.88;;;3.17;;
79052;SDS011;68451;49.510;6.026;2023-08-24T08:30:01;5.82;;;4.00;;
79052;SDS011;68451;49.510;6.026;2023-08-24T08:32:30;4.18;;;3.53;;
79052;SDS011;68451;49.510;6.026;2023-08-24T08:34:55;4.90;;;3.30;;
79052;SDS011;68451;49.510;6.026;2023-08-24T08:37:23;4.88;;;3.30;;
79052;SDS011;68451;49.510;6.026;2023-08-24T08:39:49;5.07;;;3.58;;
79052;SDS011;68451;49.510;6.026;2023-08-24T08:42:14;5.60;;;3.35;;
79052;SDS011;68451;49.510;6.026;2023-08-24T08:44:41;6.03;;;4.32;;
79052;SDS011;68451;49.510;6.026;2023-08-24T08:47:09;4.78;;;2.92;;
79052;SDS011;68451;49.510;6.026;2023-08-24T08:49:37;4.45;;;3.28;;
79052;SDS011;68451;49.510;6.026;2023-08-24T08:52:08;5.22;;;3.95;;
79052;SDS011;68451;49.510;6.026;2023-08-24T08:54:35;7.00;;;3.42;;
79052;SDS011;68451;49.510;6.026;2023-08-24T08:57:01;4.60;;;3.47;;
79052;SDS011;68451;49.510;6.026;2023-08-24T08:59:29;7.18;;;3.50;;
79052;SDS011;68451;49.510;6.026;2023-08-24T09:02:03;4.90;;;3.47;;
79052;SDS011;68451;49.510;6.026;2023-08-24T09:04:32;4.25;;;3.25;;
79052;SDS011;68451;49.510;6.026;2023-08-24T09:06:58;6.80;;;3.92;;
79052;SDS011;68451;49.510;6.026;2023-08-24T09:09:29;5.68;;;3.67;;
79052;SDS011;68451;49.510;6.026;2023-08-24T09:11:55;5.82;;;3.80;;
79052;SDS011;68451;49.510;6.026;2023-08-24T09:14:21;8.20;;;4.32;;
79052;SDS011;68451;49.510;6.026;2023-08-24T09:16:46;5.03;;;3.83;;
79052;SDS011;68451;49.510;6.026;2023-08-24T09:19:12;7.93;;;4.13;;
79052;SDS011;68451;49.510;6.026;2023-08-24T09:21:38;4.57;;;3.75;;
79052;SDS011;68451;49.510;6.026;2023-08-24T09:24:05;4.90;;;3.67;;
79052;SDS011;68451;49.510;6.026;2023-08-24T09:26:33;7.10;;;4.40;;
79052;SDS011;68451;49.510;6.026;2023-08-24T09:29:10;5.80;;;3.80;;
79052;SDS011;68451;49.510;6.026;2023-08-24T09:31:38;5.68;;;3.85;;
79052;SDS011;68451;49.510;6.026;2023-08-24T09:34:04;10.95;;;5.28;;
79052;SDS011;68451;49.510;6.026;2023-08-24T09:36:33;4.60;;;3.90;;
79052;SDS011;68451;49.510;6.026;2023-08-24T09:39:00;6.25;;;4.28;;
79052;SDS011;68451;49.510;6.026;2023-08-24T09:41:39;4.88;;;3.22;;
79052;SDS011;68451;49.510;6.026;2023-08-24T09:44:06;4.75;;;3.83;;
79052;SDS011;68451;49.510;6.026;2023-08-24T09:46:32;5.75;;;3.55;;
79052;SDS011;68451;49.510;6.026;2023-08-24T09:48:58;4.18;;;3.20;;
79052;SDS011;68451;49.510;6.026;2023-08-24T09:51:28;4.40;;;3.85;;
79052;SDS011;68451;49.510;6.026;2023-08-24T09:53:56;6.15;;;4.18;;
79052;SDS011;68451;49.510;6.026;2023-08-24T09:56:28;3.80;;;3.10;;
79052;SDS011;68451;49.510;6.026;2023-08-24T09:58:54;5.85;;;3.85;;
79052;SDS011;68451;49.510;6.026;2023-08-24T10:01:23;5.28;;;3.53;;
79052;SDS011;68451;49.510;6.026;2023-08-24T10:03:52;4.90;;;4.38;;
79052;SDS011;68451;49.510;6.026;2023-08-24T10:06:21;4.82;;;3.70;;
79052;SDS011;68451;49.510;6.026;2023-08-24T10:08:50;6.38;;;3.80;;
79052;SDS011;68451;49.510;6.026;2023-08-24T10:11:25;6.43;;;3.88;;
79052;SDS011;68451;49.510;6.026;2023-08-24T10:13:56;4.13;;;3.70;;
79052;SDS011;68451;49.510;6.026;2023-08-24T10:16:32;4.63;;;3.90;;
79052;SDS011;68451;49.510;6.026;2023-08-24T10:18:59;6.75;;;3.78;;
79052;SDS011;68451;49.510;6.026;2023-08-24T10:21:26;6.15;;;4.00;;
79052;SDS011;68451;49.510;6.026;2023-08-24T10:23:54;5.35;;;3.90;;
79052;SDS011;68451;49.510;6.026;2023-08-24T10:26:22;4.18;;;3.78;;
79052;SDS011;68451;49.510;6.026;2023-08-24T10:28:48;4.25;;;3.75;;
79052;SDS011;68451;49.510;6.026;2023-08-24T10:31:15;5.00;;;4.22;;
79052;SDS011;68451;49.510;6.026;2023-08-24T10:33:41;5.35;;;4.80;;
79052;SDS011;68451;49.510;6.026;2023-08-24T10:36:09;4.38;;;3.83;;
79052;SDS011;68451;49.510;6.026;2023-08-24T10:38:39;6.78;;;3.92;;
79052;SDS011;68451;49.510;6.026;2023-08-24T10:41:07;4.68;;;3.92;;
79052;SDS011;68451;49.510;6.026;2023-08-24T10:43:40;5.15;;;3.83;;
79052;SDS011;68451;49.510;6.026;2023-08-24T10:46:12;5.68;;;3.70;;
79052;SDS011;68451;49.510;6.026;2023-08-24T10:56:18;6.25;;;4.65;;
79052;SDS011;68451;49.510;6.026;2023-08-24T10:58:44;5.90;;;4.57;;
79052;SDS011;68451;49.510;6.026;2023-08-24T11:01:17;5.00;;;4.30;;
79052;SDS011;68451;49.510;6.026;2023-08-24T11:03:50;6.68;;;4.10;;
79052;SDS011;68451;49.510;6.026;2023-08-24T11:06:23;6.95;;;4.45;;
79052;SDS011;68451;49.510;6.026;2023-08-24T11:09:04;6.65;;;4.25;;
79052;SDS011;68451;49.510;6.026;2023-08-24T11:11:32;6.93;;;3.67;;
79052;SDS011;68451;49.510;6.026;2023-08-24T11:14:17;8.10;;;4.35;;
79052;SDS011;68451;49.510;6.026;2023-08-24T11:16:58;5.53;;;4.20;;
79052;SDS011;68451;49.510;6.026;2023-08-24T11:19:49;10.05;;;5.03;;
79052;SDS011;68451;49.510;6.026;2023-08-24T11:22:16;7.13;;;4.85;;
79052;SDS011;68451;49.510;6.026;2023-08-24T11:24:42;4.93;;;3.92;;
79052;SDS011;68451;49.510;6.026;2023-08-24T11:27:09;12.93;;;6.30;;
79052;SDS011;68451;49.510;6.026;2023-08-24T11:29:34;6.88;;;5.28;;
79052;SDS011;68451;49.510;6.026;2023-08-24T11:32:00;9.07;;;6.32;;
79052;SDS011;68451;49.510;6.026;2023-08-24T11:34:26;9.70;;;5.60;;
79052;SDS011;68451;49.510;6.026;2023-08-24T11:36:52;22.90;;;5.80;;
79052;SDS011;68451;49.510;6.026;2023-08-24T11:39:20;9.23;;;5.03;;
79052;SDS011;68451;49.510;6.026;2023-08-24T11:44:25;11.00;;;5.30;;
79052;SDS011;68451;49.510;6.026;2023-08-24T11:46:51;8.73;;;6.40;;
79052;SDS011;68451;49.510;6.026;2023-08-24T11:49:17;9.13;;;5.47;;
79052;SDS011;68451;49.510;6.026;2023-08-24T11:51:42;9.20;;;5.75;;
79052;SDS011;68451;49.510;6.026;2023-08-24T11:54:08;8.07;;;5.15;;
79052;SDS011;68451;49.510;6.026;2023-08-24T11:56:41;7.20;;;5.35;;
79052;SDS011;68451;49.510;6.026;2023-08-24T11:59:09;7.47;;;5.25;;
79052;SDS011;68451;49.510;6.026;2023-08-24T12:01:37;8.05;;;5.85;;
79052;SDS011;68451;49.510;6.026;2023-08-24T12:04:04;10.02;;;4.95;;
79052;SDS011;68451;49.510;6.026;2023-08-24T12:06:29;6.22;;;5.25;;
79052;SDS011;68451;49.510;6.026;2023-08-24T12:08:56;8.50;;;5.10;;
79052;SDS011;68451;49.510;6.026;2023-08-24T12:11:22;6.80;;;5.00;;
79052;SDS011;68451;49.510;6.026;2023-08-24T12:13:52;6.07;;;5.25;;
79052;SDS011;68451;49.510;6.026;2023-08-24T12:16:19;10.18;;;5.38;;
79052;SDS011;68451;49.510;6.026;2023-08-24T12:18:46;7.22;;;4.75;;
79052;SDS011;68451;49.510;6.026;2023-08-24T12:21:19;5.63;;;5.07;;
79052;SDS011;68451;49.510;6.026;2023-08-24T12:26:34;6.93;;;4.22;;
79052;SDS011;68451;49.510;6.026;2023-08-24T12:29:04;6.38;;;3.80;;
79052;SDS011;68451;49.510;6.026;2023-08-24T12:31:32;5.40;;;4.50;;
79052;SDS011;68451;49.510;6.026;2023-08-24T12:33:58;4.53;;;3.53;;
79052;SDS011;68451;49.510;6.026;2023-08-24T12:36:28;5.28;;;3.80;;
79052;SDS011;68451;49.510;6.026;2023-08-24T12:38:54;6.05;;;3.22;;
79052;SDS011;68451;49.510;6.026;2023-08-24T12:41:20;6.80;;;3.30;;
79052;SDS011;68451;49.510;6.026;2023-08-24T12:43:45;7.05;;;3.40;;
79052;SDS011;68451;49.510;6.026;2023-08-24T12:46:10;6.13;;;4.00;;
79052;SDS011;68451;49.510;6.026;2023-08-24T12:48:36;5.30;;;3.83;;
79052;SDS011;68451;49.510;6.026;2023-08-24T12:51:01;5.03;;;3.70;;
79052;SDS011;68451;49.510;6.026;2023-08-24T12:53:27;7.45;;;3.95;;
79052;SDS011;68451;49.510;6.026;2023-08-24T12:55:53;6.20;;;3.97;;
79052;SDS011;68451;49.510;6.026;2023-08-24T12:58:18;6.07;;;3.75;;
79052;SDS011;68451;49.510;6.026;2023-08-24T13:00:45;4.97;;;3.70;;
79052;SDS011;68451;49.510;6.026;2023-08-24T13:03:11;4.68;;;3.17;;
79052;SDS011;68451;49.510;6.026;2023-08-24T13:05:37;5.10;;;4.57;;
79052;SDS011;68451;49.510;6.026;2023-08-24T13:08:03;6.50;;;3.60;;
79052;SDS011;68451;49.510;6.026;2023-08-24T13:10:29;6.22;;;3.45;;
79052;SDS011;68451;49.510;6.026;2023-08-24T13:12:55;4.13;;;3.33;;
79052;SDS011;68451;49.510;6.026;2023-08-24T13:15:21;5.68;;;3.38;;
79052;SDS011;68451;49.510;6.026;2023-08-24T13:17:47;4.72;;;3.42;;
79052;SDS011;68451;49.510;6.026;2023-08-24T13:20:12;4.95;;;3.70;;
79052;SDS011;68451;49.510;6.026;2023-08-24T13:22:38;5.88;;;4.32;;
79052;SDS011;68451;49.510;6.026;2023-08-24T13:25:03;5.57;;;3.97;;
79052;SDS011;68451;49.510;6.026;2023-08-24T13:27:29;4.97;;;3.67;;
79052;SDS011;68451;49.510;6.026;2023-08-24T13:29:56;4.50;;;3.67;;
79052;SDS011;68451;49.510;6.026;2023-08-24T13:32:24;4.25;;;3.50;;
79052;SDS011;68451;49.510;6.026;2023-08-24T13:34:50;6.20;;;3.65;;
79052;SDS011;68451;49.510;6.026;2023-08-24T13:37:16;4.28;;;3.88;;
79052;SDS011;68451;49.510;6.026;2023-08-24T13:39:42;4.53;;;4.03;;
79052;SDS011;68451;49.510;6.026;2023-08-24T13:42:08;4.40;;;3.83;;
79052;SDS011;68451;49.510;6.026;2023-08-24T13:44:33;7.00;;;4.22;;
79052;SDS011;68451;49.510;6.026;2023-08-24T13:46:59;5.63;;;3.58;;
79052;SDS011;68451;49.510;6.026;2023-08-24T13:49:24;5.47;;;3.92;;
79052;SDS011;68451;49.510;6.026;2023-08-24T13:51:50;5.07;;;3.92;;
79052;SDS011;68451;49.510;6.026;2023-08-24T13:54:16;8.63;;;4.18;;
79052;SDS011;68451;49.510;6.026;2023-08-24T13:56:46;4.75;;;3.78;;
79052;SDS011;68451;49.510;6.026;2023-08-24T13:59:13;5.47;;;4.20;;
79052;SDS011;68451;49.510;6.026;2023-08-24T14:01:39;6.30;;;3.90;;
79052;SDS011;68451;49.510;6.026;2023-08-24T14:04:05;6.10;;;3.28;;
79052;SDS011;68451;49.510;6.026;2023-08-24T14:06:32;7.15;;;3.85;;
79052;SDS011;68451;49.510;6.026;2023-08-24T14:09:01;6.32;;;3.20;;
79052;SDS011;68451;49.510;6.026;2023-08-24T14:11:28;4.45;;;3.13;;
79052;SDS011;68451;49.510;6.026;2023-08-24T14:13:53;4.25;;;2.53;;
79052;SDS011;68451;49.510;6.026;2023-08-24T14:16:19;3.88;;;2.35;;
79052;SDS011;68451;49.510;6.026;2023-08-24T14:18:45;4.18;;;2.90;;
79052;SDS011;68451;49.510;6.026;2023-08-24T14:21:11;8.30;;;3.13;;
79052;SDS011;68451;49.510;6.026;2023-08-24T14:23:36;4.22;;;2.35;;
79052;SDS011;68451;49.510;6.026;2023-08-24T14:26:02;3.55;;;2.58;;
79052;SDS011;68451;49.510;6.026;2023-08-24T14:31:25;3.88;;;2.22;;
79052;SDS011;68451;49.510;6.026;2023-08-24T14:33:56;4.18;;;2.03;;
79052;SDS011;68451;49.510;6.026;2023-08-24T14:36:22;3.65;;;1.90;;
79052;SDS011;68451;49.510;6.026;2023-08-24T14:38:48;12.45;;;3.17;;
79052;SDS011;68451;49.510;6.026;2023-08-24T14:41:16;12.23;;;3.28;;
79052;SDS011;68451;49.510;6.026;2023-08-24T14:43:42;7.05;;;2.83;;
79052;SDS011;68451;49.510;6.026;2023-08-24T14:46:09;3.55;;;1.60;;
79052;SDS011;68451;49.510;6.026;2023-08-24T14:48:35;8.35;;;2.20;;
79052;SDS011;68451;49.510;6.026;2023-08-24T14:51:00;6.22;;;2.20;;
79052;SDS011;68451;49.510;6.026;2023-08-24T14:53:27;4.10;;;1.90;;
79052;SDS011;68451;49.510;6.026;2023-08-24T14:55:53;4.25;;;2.53;;
79052;SDS011;68451;49.510;6.026;2023-08-24T14:58:22;4.97;;;2.03;;
79052;SDS011;68451;49.510;6.026;2023-08-24T15:00:49;5.15;;;2.05;;
79052;SDS011;68451;49.510;6.026;2023-08-24T15:03:15;3.08;;;2.28;;
79052;SDS011;68451;49.510;6.026;2023-08-24T15:05:45;3.83;;;1.40;;
79052;SDS011;68451;49.510;6.026;2023-08-24T15:08:13;2.55;;;1.65;;